Search for airport 
image banner adimage banner adimage banner ad
image banner ad

0CA5 - Hoffman Pvt

Located in Santa Ysabel, United States

ICAO - 0CA5, IATA -

Data provided by Airmate  

General information

Coordinates: N33°8'35" W116°44'43"
Elevation is 3100 feet MSL.
Magnetic variation is 13° East
View others Airports in California

Operational data

Special qualification required
Current time UTC:
Current local time:
Weather at : KRNM - Ramona ( 20 km )
METAR: KRNM 150953Z AUTO 12003KT 10SM CLR 16/10 A2989 RMK AO2 SLP106 T01560100
View NOTAMs / SUP AIP / TFR affecting this airport [VIEW]
Communications frequencies: [VIEW]

Runways:

RWY identifierQFULength (ft)Width (ft)SurfaceLDA (ft)
11140030ASPH
29140030ASPH

Airport contact information

Address: Santa Ysabel United States

Satellite view of 0CA5